Time;durP1;ratioP1;P1;durP2;ratioP2;P2;SDS_P1;SDS_P2;PMS_P1;PMS_P2;Temp;Humidity;BMP_temperature;BMP_pressure;BME280_temperature;BME280_humidity;BME280_pressure;Samples;Min_cycle;Max_cycle;Signal;HPM_P1;HPM_P2
2023/07/02 00:01:06;;;;;;;;;;;16.60;99.90;;;;;;5024770;28;19929;-62
2023/07/02 00:03:38;;;;;;;;;;;16.60;99.90;;;;;;5021030;28;20031;-62
2023/07/02 00:06:10;;;;;;;;;;;16.60;99.90;;;;;;5019356;28;20246;-62
2023/07/02 00:08:42;;;;;;;;;;;16.60;99.90;;;;;;5018486;28;19936;-62
2023/07/02 00:11:15;;;;;;;;;;;16.60;99.90;;;;;;5021055;28;19925;-62
2023/07/02 00:13:42;;;;;;;;;;;16.60;99.90;;;;;;5016656;28;19999;-62
2023/07/02 00:16:13;;;;;;;;;;;16.60;99.90;;;;;;5017691;28;20333;-62
2023/07/02 00:18:49;;;;;;;;;;;16.60;99.90;;;;;;5020185;28;20317;-62
2023/07/02 00:21:21;;;;;;;;;;;16.50;99.90;;;;;;5023123;28;19929;-62
2023/07/02 00:23:52;;;;;;;;;;;16.50;99.90;;;;;;5027369;28;19936;-62
2023/07/02 00:26:24;;;;;;;;;;;16.50;99.90;;;;;;5022252;28;19926;-62
2023/07/02 00:28:56;;;;;;;;;;;16.40;99.90;;;;;;5020046;28;19930;-62
2023/07/02 00:31:28;;;;;;;;;;;16.50;99.90;;;;;;5019582;28;19987;-62
2023/07/02 00:34:03;;;;;;;;;;;16.50;99.90;;;;;;5018189;28;19948;-62
2023/07/02 00:36:36;;;;;;;;;;;16.50;99.90;;;;;;5020129;28;19932;-62
2023/07/02 00:39:11;;;;;;;;;;;16.50;99.90;;;;;;5018418;28;19925;-62
2023/07/02 00:41:46;;;;;;;;;;;16.50;99.90;;;;;;5026344;28;20397;-62
2023/07/02 00:44:17;;;;;;;;;;;16.50;99.90;;;;;;5020622;28;19931;-62
2023/07/02 00:46:49;;;;;;;;;;;16.50;99.90;;;;;;5024117;28;19929;-62
2023/07/02 00:49:21;;;;;;;;;;;16.50;99.90;;;;;;5025191;28;20392;-62
2023/07/02 00:51:52;;;;;;;;;;;16.50;99.90;;;;;;5020946;28;19925;-62
2023/07/02 00:54:24;;;;;;;;;;;16.50;99.90;;;;;;5022379;28;19929;-62
2023/07/02 00:56:56;;;;;;;;;;;16.50;99.90;;;;;;5025354;28;19983;-62
2023/07/02 00:59:29;;;;;;;;;;;16.50;99.90;;;;;;5026348;28;19929;-63
2023/07/02 01:02:01;;;;;;;;;;;16.50;99.90;;;;;;5023567;28;19926;-62
2023/07/02 01:04:33;;;;;;;;;;;16.50;99.90;;;;;;5035345;28;19925;-62
2023/07/02 01:07:09;;;;;;;;;;;16.50;99.90;;;;;;5027108;28;19929;-62
2023/07/02 01:09:36;;;;;;;;;;;16.60;99.90;;;;;;5022339;28;20032;-62
2023/07/02 01:12:04;;;;;;;;;;;16.60;99.90;;;;;;5028267;28;20464;-62
2023/07/02 01:14:36;;;;;;;;;;;16.50;99.90;;;;;;5023179;28;19933;-62
2023/07/02 01:17:08;;;;;;;;;;;16.60;99.90;;;;;;5021010;28;19930;-62
2023/07/02 01:19:52;;;;;;;;;;;16.60;99.90;;;;;;5038440;28;19925;-62
2023/07/02 01:22:25;;;;;;;;;;;16.60;99.90;;;;;;5023001;28;19925;-62
2023/07/02 01:24:57;;;;;;;;;;;16.60;99.90;;;;;;5037383;28;19925;-62
2023/07/02 01:27:29;;;;;;;;;;;16.70;99.90;;;;;;5028949;28;20048;-62
2023/07/02 01:30:01;;;;;;;;;;;16.60;99.90;;;;;;5021136;28;20012;-62
2023/07/02 01:32:34;;;;;;;;;;;16.70;99.90;;;;;;5024962;28;19925;-62
2023/07/02 01:35:06;;;;;;;;;;;16.70;99.90;;;;;;5020203;28;20029;-62
2023/07/02 01:37:38;;;;;;;;;;;16.70;99.90;;;;;;5029812;28;19925;-62
2023/07/02 01:40:10;;;;;;;;;;;16.70;99.90;;;;;;5021517;28;19925;-62
2023/07/02 01:42:42;;;;;;;;;;;16.70;99.90;;;;;;5026022;28;19979;-62
2023/07/02 01:45:14;;;;;;;;;;;16.80;99.90;;;;;;5024576;28;19929;-62
2023/07/02 01:47:45;;;;;;;;;;;16.80;99.90;;;;;;5028922;28;19925;-62
2023/07/02 01:50:17;;;;;;;;;;;16.80;99.90;;;;;;5018473;28;19929;-62
2023/07/02 01:52:49;;;;;;;;;;;16.80;99.90;;;;;;5016253;28;19929;-62
2023/07/02 01:55:21;;;;;;;;;;;16.90;99.90;;;;;;5028237;28;19925;-62
2023/07/02 01:57:53;;;;;;;;;;;16.90;99.90;;;;;;5024934;28;19936;-63
2023/07/02 02:00:19;;;;;;;;;;;16.90;99.90;;;;;;5013550;28;19932;-63
2023/07/02 02:02:47;;;;;;;;;;;16.60;99.90;;;;;;5020335;28;19936;-63
2023/07/02 02:05:14;;;;;;;;;;;16.30;99.90;;;;;;5020398;28;19933;-63
2023/07/02 02:07:48;;;;;;;;;;;16.10;99.90;;;;;;5030364;28;19976;-63
2023/07/02 02:10:14;;;;;;;;;;;16.00;99.90;;;;;;5028353;28;19933;-63
2023/07/02 02:12:46;;;;;;;;;;;15.90;99.90;;;;;;5031576;28;19975;-63
2023/07/02 02:15:18;;;;;;;;;;;15.70;99.90;;;;;;5023536;28;19969;-62
2023/07/02 02:17:50;;;;;;;;;;;15.60;99.90;;;;;;5017892;28;20415;-63
2023/07/02 02:20:22;;;;;;;;;;;15.60;99.90;;;;;;5028417;28;19929;-63
2023/07/02 02:22:49;;;;;;;;;;;15.50;99.90;;;;;;5023278;28;19935;-62
2023/07/02 02:25:21;;;;;;;;;;;15.40;99.90;;;;;;5030849;28;19925;-62
2023/07/02 02:27:52;;;;;;;;;;;15.40;99.90;;;;;;5037456;28;19933;-63
2023/07/02 02:30:19;;;;;;;;;;;15.30;99.90;;;;;;5031334;28;19929;-63
2023/07/02 02:32:51;;;;;;;;;;;15.30;99.90;;;;;;5027745;28;20378;-63
2023/07/02 02:35:25;;;;;;;;;;;15.20;99.90;;;;;;5021534;28;19936;-63
2023/07/02 02:37:52;;;;;;;;;;;15.20;99.90;;;;;;5025185;28;19937;-63
2023/07/02 02:40:20;;;;;;;;;;;15.20;99.90;;;;;;5031352;28;19925;-63
2023/07/02 02:42:52;;;;;;;;;;;15.20;99.90;;;;;;5021188;28;19982;-63
2023/07/02 02:45:24;;;;;;;;;;;15.20;99.90;;;;;;5030740;28;19968;-62
2023/07/02 02:47:55;;;;;;;;;;;15.20;99.90;;;;;;5025097;28;20011;-63
2023/07/02 02:50:27;;;;;;;;;;;15.10;99.90;;;;;;5025039;28;19929;-63
2023/07/02 02:52:59;;;;;;;;;;;15.10;99.90;;;;;;5029439;28;19926;-63
2023/07/02 02:55:30;;;;;;;;;;;15.10;99.90;;;;;;5028889;28;19929;-62
2023/07/02 02:58:02;;;;;;;;;;;15.00;99.90;;;;;;5025277;28;19925;-62
2023/07/02 03:00:34;;;;;;;;;;;15.00;99.90;;;;;;5008227;28;19947;-62
2023/07/02 03:03:06;;;;;;;;;;;15.00;99.90;;;;;;5024976;28;19940;-63
2023/07/02 03:05:38;;;;;;;;;;;15.10;99.90;;;;;;5027574;28;19931;-62
2023/07/02 03:08:10;;;;;;;;;;;15.10;99.90;;;;;;5022909;28;19929;-63
2023/07/02 03:10:41;;;;;;;;;;;15.20;99.90;;;;;;5024443;28;19925;-63
2023/07/02 03:13:13;;;;;;;;;;;15.20;99.90;;;;;;5026092;28;19925;-62
2023/07/02 03:15:45;;;;;;;;;;;15.20;99.90;;;;;;5023299;28;20405;-62
2023/07/02 03:18:16;;;;;;;;;;;15.20;99.90;;;;;;5029257;28;19925;-62
2023/07/02 03:20:48;;;;;;;;;;;15.20;99.90;;;;;;5020066;28;19929;-62
2023/07/02 03:23:20;;;;;;;;;;;15.20;99.90;;;;;;5024865;28;19929;-62
2023/07/02 03:25:52;;;;;;;;;;;15.20;99.90;;;;;;5025490;28;19931;-62
2023/07/02 03:28:23;;;;;;;;;;;15.20;99.90;;;;;;5022816;28;20028;-62
2023/07/02 03:30:55;;;;;;;;;;;15.10;99.90;;;;;;5025935;28;19935;-62
2023/07/02 03:33:27;;;;;;;;;;;15.10;99.90;;;;;;5024761;28;19975;-62
2023/07/02 03:35:58;;;;;;;;;;;15.10;99.90;;;;;;5026468;28;20428;-62
2023/07/02 03:38:30;;;;;;;;;;;15.10;99.90;;;;;;5025226;28;19967;-62
2023/07/02 03:41:02;;;;;;;;;;;15.00;99.90;;;;;;5023672;28;19938;-62
2023/07/02 03:43:34;;;;;;;;;;;15.10;99.90;;;;;;5024769;28;20424;-63
2023/07/02 03:46:05;;;;;;;;;;;15.20;99.90;;;;;;5021764;28;19932;-62
2023/07/02 03:48:37;;;;;;;;;;;15.10;99.90;;;;;;5023096;28;19929;-62
2023/07/02 03:51:04;;;;;;;;;;;15.10;99.90;;;;;;5022536;28;20009;-63
2023/07/02 03:53:36;;;;;;;;;;;15.00;99.90;;;;;;5020871;28;19925;-62
2023/07/02 03:56:07;;;;;;;;;;;15.00;99.90;;;;;;5019955;28;19929;-62
2023/07/02 03:58:40;;;;;;;;;;;15.00;99.90;;;;;;5025632;28;19929;-62
2023/07/02 04:01:11;;;;;;;;;;;15.00;99.90;;;;;;5022875;28;20461;-63
2023/07/02 04:03:50;;;;;;;;;;;15.00;99.90;;;;;;5017903;28;19932;-62
2023/07/02 04:06:22;;;;;;;;;;;15.00;99.90;;;;;;5020178;28;19925;-62
2023/07/02 04:08:49;;;;;;;;;;;15.00;99.90;;;;;;5022551;28;19925;-62
2023/07/02 04:11:21;;;;;;;;;;;15.00;99.90;;;;;;5021544;28;19995;-62
2023/07/02 04:13:52;;;;;;;;;;;14.90;99.90;;;;;;5015193;28;19925;-62
2023/07/02 04:16:24;;;;;;;;;;;14.90;99.90;;;;;;5023784;28;19965;-62
2023/07/02 04:18:51;;;;;;;;;;;14.90;99.90;;;;;;5017433;28;20504;-62
2023/07/02 04:21:22;;;;;;;;;;;14.90;99.90;;;;;;5016784;28;20306;-62
2023/07/02 04:23:54;;;;;;;;;;;15.00;99.90;;;;;;5016667;28;19929;-62
2023/07/02 04:26:26;;;;;;;;;;;15.00;99.90;;;;;;5022997;28;19935;-62
2023/07/02 04:28:58;;;;;;;;;;;15.00;99.90;;;;;;5025524;28;19965;-62
2023/07/02 04:31:26;;;;;;;;;;;15.10;99.90;;;;;;5018968;28;19925;-63
2023/07/02 04:33:52;;;;;;;;;;;15.20;99.90;;;;;;5014216;28;19940;-62
2023/07/02 04:36:24;;;;;;;;;;;15.30;99.90;;;;;;5019824;28;19929;-62
2023/07/02 04:38:56;;;;;;;;;;;15.40;99.90;;;;;;5018783;28;19928;-62
2023/07/02 04:41:29;;;;;;;;;;;15.50;99.90;;;;;;5026304;28;19929;-62
2023/07/02 04:44:01;;;;;;;;;;;15.50;99.90;;;;;;5021352;28;19933;-62
2023/07/02 04:46:28;;;;;;;;;;;15.50;99.90;;;;;;5024194;28;20572;-62
2023/07/02 04:48:55;;;;;;;;;;;15.50;99.90;;;;;;5027847;28;20373;-62
2023/07/02 04:51:21;;;;;;;;;;;15.50;99.90;;;;;;5020455;28;20393;-62
2023/07/02 04:53:53;;;;;;;;;;;15.50;99.90;;;;;;5027040;28;19929;-62
2023/07/02 04:56:25;;;;;;;;;;;15.40;99.90;;;;;;5014428;28;19926;-62
2023/07/02 04:58:57;;;;;;;;;;;15.40;99.90;;;;;;5026182;28;20402;-62
2023/07/02 05:01:29;;;;;;;;;;;15.40;99.90;;;;;;5028774;28;19932;-62
2023/07/02 05:04:01;;;;;;;;;;;15.40;99.90;;;;;;5027741;28;19932;-62
2023/07/02 05:06:32;;;;;;;;;;;15.40;99.90;;;;;;5025304;28;20415;-62
2023/07/02 05:09:04;;;;;;;;;;;15.30;99.90;;;;;;5031898;28;19937;-62
2023/07/02 05:11:31;;;;;;;;;;;15.40;99.90;;;;;;5022735;28;19936;-62
2023/07/02 05:14:03;;;;;;;;;;;15.40;99.90;;;;;;5027640;28;19925;-62
2023/07/02 05:16:35;;;;;;;;;;;15.40;99.90;;;;;;5027334;28;20480;-62
2023/07/02 05:19:06;;;;;;;;;;;15.50;99.90;;;;;;5026821;28;19925;-62
2023/07/02 05:21:33;;;;;;;;;;;15.50;99.90;;;;;;5028529;28;19929;-62
2023/07/02 05:24:05;;;;;;;;;;;15.60;99.90;;;;;;5026474;28;19929;-63
2023/07/02 05:26:36;;;;;;;;;;;15.60;99.90;;;;;;5026018;28;19956;-63
2023/07/02 05:29:09;;;;;;;;;;;15.70;99.90;;;;;;5030269;28;19931;-63
2023/07/02 05:31:41;;;;;;;;;;;15.60;99.90;;;;;;5029935;28;19925;-63
2023/07/02 05:34:12;;;;;;;;;;;15.60;99.90;;;;;;5032003;28;19946;-62
2023/07/02 05:36:44;;;;;;;;;;;15.60;99.90;;;;;;5030440;28;19986;-63
2023/07/02 05:39:11;;;;;;;;;;;15.50;99.90;;;;;;5029226;28;20378;-63
2023/07/02 05:41:43;;;;;;;;;;;15.50;99.90;;;;;;5028850;28;19925;-63
2023/07/02 05:44:15;;;;;;;;;;;15.40;99.90;;;;;;5028637;28;19929;-63
2023/07/02 05:46:47;;;;;;;;;;;15.40;99.90;;;;;;5030785;28;19929;-63
2023/07/02 05:49:18;;;;;;;;;;;15.30;99.90;;;;;;5029108;28;20313;-62
2023/07/02 05:51:50;;;;;;;;;;;15.30;99.90;;;;;;5027006;28;20407;-63
2023/07/02 05:54:22;;;;;;;;;;;15.10;99.90;;;;;;5028701;28;19969;-63
2023/07/02 05:56:54;;;;;;;;;;;15.10;99.90;;;;;;5027747;28;20449;-63
2023/07/02 05:59:20;;;;;;;;;;;15.10;99.90;;;;;;5028633;28;20346;-63
2023/07/02 06:01:52;;;;;;;;;;;15.00;99.90;;;;;;5027613;28;20366;-63
2023/07/02 06:04:26;;;;;;;;;;;15.00;99.90;;;;;;5023616;28;20147;-63
2023/07/02 06:06:57;;;;;;;;;;;15.10;99.90;;;;;;5029711;28;19929;-63
2023/07/02 06:09:24;;;;;;;;;;;15.00;99.90;;;;;;5027642;28;20040;-63
2023/07/02 06:11:56;;;;;;;;;;;15.00;99.90;;;;;;5028738;28;19936;-63
2023/07/02 06:14:28;;;;;;;;;;;15.10;99.90;;;;;;5026177;28;20020;-63
2023/07/02 06:17:00;;;;;;;;;;;15.00;99.90;;;;;;5025136;28;19933;-63
2023/07/02 06:19:32;;;;;;;;;;;15.00;99.90;;;;;;5024489;28;19931;-63
2023/07/02 06:22:04;;;;;;;;;;;15.00;99.90;;;;;;5021999;28;20063;-63
2023/07/02 06:24:37;;;;;;;;;;;15.00;99.90;;;;;;5022309;28;19929;-63
2023/07/02 06:27:08;;;;;;;;;;;15.00;99.90;;;;;;5010798;28;19926;-63
2023/07/02 06:29:40;;;;;;;;;;;14.90;99.90;;;;;;5024918;28;20408;-63
2023/07/02 06:32:07;;;;;;;;;;;15.00;99.90;;;;;;5018835;28;20044;-63
2023/07/02 06:34:34;;;;;;;;;;;15.00;99.90;;;;;;5019007;28;19986;-63
2023/07/02 06:37:01;;;;;;;;;;;15.00;99.90;;;;;;5017570;28;20390;-63
2023/07/02 06:39:32;;;;;;;;;;;15.00;99.90;;;;;;5029410;28;19932;-63
2023/07/02 06:42:04;;;;;;;;;;;15.10;99.90;;;;;;5020819;28;19951;-63
2023/07/02 06:44:38;;;;;;;;;;;15.10;99.90;;;;;;5026273;28;19963;-63
2023/07/02 06:47:10;;;;;;;;;;;15.20;99.90;;;;;;5018790;28;19957;-63
2023/07/02 06:49:36;;;;;;;;;;;15.20;99.90;;;;;;5019023;28;19925;-63
2023/07/02 06:52:09;;;;;;;;;;;15.20;99.90;;;;;;5026303;28;20011;-63
2023/07/02 06:54:41;;;;;;;;;;;15.20;99.90;;;;;;5018110;28;19929;-64
2023/07/02 06:57:13;;;;;;;;;;;15.20;99.90;;;;;;5019970;28;19932;-64
2023/07/02 06:59:44;;;;;;;;;;;15.20;99.90;;;;;;5026848;28;19929;-63
2023/07/02 07:02:16;;;;;;;;;;;15.30;99.90;;;;;;5021306;28;19933;-63
2023/07/02 07:04:48;;;;;;;;;;;15.30;99.90;;;;;;5027049;28;19936;-63
2023/07/02 07:07:20;;;;;;;;;;;15.40;99.90;;;;;;5026130;28;19925;-63
2023/07/02 07:09:51;;;;;;;;;;;15.40;99.90;;;;;;5023054;28;19930;-62
2023/07/02 07:12:23;;;;;;;;;;;15.50;99.90;;;;;;5024301;28;19932;-63
2023/07/02 07:14:55;;;;;;;;;;;15.60;99.90;;;;;;5017681;28;20160;-63
2023/07/02 07:17:27;;;;;;;;;;;15.70;99.90;;;;;;5018298;28;19932;-63
2023/07/02 07:19:59;;;;;;;;;;;15.70;99.90;;;;;;5024793;28;20300;-62
2023/07/02 07:22:31;;;;;;;;;;;15.70;99.90;;;;;;5023290;28;19932;-62
2023/07/02 07:25:03;;;;;;;;;;;15.70;99.90;;;;;;5024998;28;19929;-63
2023/07/02 07:27:35;;;;;;;;;;;15.70;99.90;;;;;;5020883;28;19972;-63
2023/07/02 07:30:07;;;;;;;;;;;15.70;99.90;;;;;;5023144;28;20023;-63
2023/07/02 07:32:39;;;;;;;;;;;15.70;99.90;;;;;;5029673;28;19925;-63
2023/07/02 07:35:10;;;;;;;;;;;15.70;99.90;;;;;;5023709;28;20463;-63
2023/07/02 07:37:42;;;;;;;;;;;15.80;99.90;;;;;;5029870;28;19937;-63
2023/07/02 07:40:09;;;;;;;;;;;15.80;99.90;;;;;;5027165;28;20666;-63
2023/07/02 07:42:42;;;;;;;;;;;16.00;99.90;;;;;;5024408;28;19932;-63
2023/07/02 07:45:13;;;;;;;;;;;16.10;99.90;;;;;;5022636;28;19931;-63
2023/07/02 07:47:45;;;;;;;;;;;16.20;99.90;;;;;;5027033;28;19929;-63
2023/07/02 07:50:17;;;;;;;;;;;16.30;99.90;;;;;;5023861;28;19948;-63
2023/07/02 07:52:49;;;;;;;;;;;16.40;99.90;;;;;;5024772;28;19972;-63
2023/07/02 07:55:20;;;;;;;;;;;16.60;99.90;;;;;;5024303;28;19932;-62
2023/07/02 07:57:52;;;;;;;;;;;16.60;99.90;;;;;;5021974;28;19929;-63
2023/07/02 08:00:25;;;;;;;;;;;16.70;99.90;;;;;;5022646;28;19925;-62
2023/07/02 08:02:57;;;;;;;;;;;16.80;99.90;;;;;;5019679;28;19932;-62
2023/07/02 08:05:29;;;;;;;;;;;16.80;99.90;;;;;;5022606;28;19929;-63
2023/07/02 08:08:01;;;;;;;;;;;17.00;99.90;;;;;;5020159;28;19925;-62
2023/07/02 08:10:32;;;;;;;;;;;17.00;99.90;;;;;;5028594;28;19978;-62
2023/07/02 08:13:04;;;;;;;;;;;16.90;99.90;;;;;;5022055;28;19926;-62
2023/07/02 08:15:37;;;;;;;;;;;16.90;99.90;;;;;;5024476;28;19929;-62
2023/07/02 08:18:09;;;;;;;;;;;17.00;99.90;;;;;;5018789;28;19936;-62
2023/07/02 08:20:41;;;;;;;;;;;17.10;99.90;;;;;;5024049;28;19925;-62
2023/07/02 08:23:13;;;;;;;;;;;17.20;99.90;;;;;;5020182;28;19936;-62
2023/07/02 08:25:45;;;;;;;;;;;17.30;99.90;;;;;;5026317;28;20373;-62
2023/07/02 08:28:16;;;;;;;;;;;17.30;99.90;;;;;;5014037;28;20012;-62
2023/07/02 08:30:48;;;;;;;;;;;17.30;99.90;;;;;;5019703;28;20457;-62
2023/07/02 08:33:20;;;;;;;;;;;17.40;99.90;;;;;;5016494;28;19925;-62
2023/07/02 08:35:52;;;;;;;;;;;17.40;99.90;;;;;;5013865;28;19936;-62
2023/07/02 08:38:24;;;;;;;;;;;17.40;99.90;;;;;;5013869;28;20020;-62
2023/07/02 08:40:55;;;;;;;;;;;17.50;99.90;;;;;;5025133;28;20305;-62
2023/07/02 08:43:28;;;;;;;;;;;17.50;99.90;;;;;;5026426;28;19929;-62
2023/07/02 08:46:00;;;;;;;;;;;17.50;99.90;;;;;;5026873;28;19956;-62
2023/07/02 08:48:33;;;;;;;;;;;17.50;99.90;;;;;;5027547;28;19929;-62
2023/07/02 08:51:05;;;;;;;;;;;17.40;99.90;;;;;;5025515;28;19948;-62
2023/07/02 08:53:37;;;;;;;;;;;17.40;99.90;;;;;;5021942;28;19936;-62
2023/07/02 08:56:08;;;;;;;;;;;17.40;99.90;;;;;;5022074;28;19929;-62
2023/07/02 08:58:40;;;;;;;;;;;17.50;99.90;;;;;;5026688;28;19925;-62
2023/07/02 09:01:13;;;;;;;;;;;17.50;99.90;;;;;;5022354;28;20389;-62
2023/07/02 09:03:40;;;;;;;;;;;17.60;99.90;;;;;;5021607;28;19933;-62
2023/07/02 09:06:12;;;;;;;;;;;17.70;99.90;;;;;;5020976;28;20442;-62
2023/07/02 09:08:39;;;;;;;;;;;17.80;99.90;;;;;;5028865;28;19925;-62
2023/07/02 09:11:16;;;;;;;;;;;17.80;99.90;;;;;;5021867;28;20462;-62
2023/07/02 09:13:49;;;;;;;;;;;17.80;99.90;;;;;;5026364;28;19936;-62
2023/07/02 09:16:22;;;;;;;;;;;17.80;99.90;;;;;;5027363;28;20455;-62
2023/07/02 09:19:17;;;;;;;;;;;17.80;99.90;;;;;;5028632;28;19936;-62
2023/07/02 09:21:45;;;;;;;;;;;17.90;99.90;;;;;;5021283;28;19929;-62
2023/07/02 09:24:22;;;;;;;;;;;18.10;99.90;;;;;;5023902;28;19933;-62
2023/07/02 09:27:01;;;;;;;;;;;18.20;99.90;;;;;;5028582;28;20277;-62
2023/07/02 09:29:28;;;;;;;;;;;18.40;99.90;;;;;;5038901;28;19929;-62
2023/07/02 09:31:56;;;;;;;;;;;18.60;99.90;;;;;;5027081;28;19953;-62
2023/07/02 09:34:29;;;;;;;;;;;18.80;99.90;;;;;;5010931;28;20314;-62
2023/07/02 09:37:01;;;;;;;;;;;18.90;99.90;;;;;;5021916;28;19929;-62
2023/07/02 09:39:29;;;;;;;;;;;19.00;99.90;;;;;;5022540;28;19940;-62
2023/07/02 09:42:01;;;;;;;;;;;19.00;99.90;;;;;;5021266;28;19929;-62
2023/07/02 09:44:33;;;;;;;;;;;19.00;99.90;;;;;;5024352;28;19932;-62
2023/07/02 09:47:06;;;;;;;;;;;18.80;99.90;;;;;;5026010;28;20024;-62
2023/07/02 09:49:39;;;;;;;;;;;18.80;99.90;;;;;;5026867;28;19929;-62
2023/07/02 09:52:11;;;;;;;;;;;18.90;99.90;;;;;;5026500;28;19925;-62
2023/07/02 09:54:43;;;;;;;;;;;18.90;99.90;;;;;;5014777;28;19941;-62
2023/07/02 09:57:14;;;;;;;;;;;18.70;99.90;;;;;;5024552;28;19929;-61
2023/07/02 09:59:46;;;;;;;;;;;18.50;99.90;;;;;;5026984;28;20321;-62
2023/07/02 10:02:18;;;;;;;;;;;18.30;99.90;;;;;;5023899;28;19968;-62
2023/07/02 10:04:46;;;;;;;;;;;18.30;99.90;;;;;;5029671;28;20515;-62
2023/07/02 10:07:30;;;;;;;;;;;18.30;99.90;;;;;;5026311;28;19932;-62
2023/07/02 10:10:02;;;;;;;;;;;18.30;99.90;;;;;;5024596;28;19980;-62
2023/07/02 10:12:45;;;;;;;;;;;18.50;99.90;;;;;;5031105;28;19951;-62
2023/07/02 10:15:12;;;;;;;;;;;18.70;99.90;;;;;;5024489;28;20026;-61
2023/07/02 10:17:54;;;;;;;;;;;18.90;99.90;;;;;;5014039;28;19964;-62
2023/07/02 10:20:35;;;;;;;;;;;19.30;99.90;;;;;;5030162;28;20454;-63
2023/07/02 10:23:08;;;;;;;;;;;19.50;99.90;;;;;;5039447;28;20003;-62
2023/07/02 10:25:40;;;;;;;;;;;19.80;99.90;;;;;;5027947;28;19935;-62
2023/07/02 10:28:20;;;;;;;;;;;19.90;99.90;;;;;;5030127;28;19925;-62
2023/07/02 10:30:46;;;;;;;;;;;20.20;99.90;;;;;;5027062;28;20021;-62
2023/07/02 10:33:18;;;;;;;;;;;20.30;99.90;;;;;;5030085;28;19940;-62
2023/07/02 10:35:50;;;;;;;;;;;20.30;99.90;;;;;;5029161;28;19929;-61
2023/07/02 10:38:21;;;;;;;;;;;20.20;99.90;;;;;;5029400;28;19933;-62
2023/07/02 10:41:02;;;;;;;;;;;20.10;99.90;;;;;;5044905;28;19972;-62
2023/07/02 10:43:34;;;;;;;;;;;20.30;99.90;;;;;;5028743;28;19960;-62
2023/07/02 10:46:06;;;;;;;;;;;20.40;99.90;;;;;;5027711;28;19936;-61
2023/07/02 10:48:37;;;;;;;;;;;20.60;99.90;;;;;;5027092;28;19929;-62
2023/07/02 10:51:13;;;;;;;;;;;20.70;99.90;;;;;;5027573;28;19929;-62
2023/07/02 10:53:39;;;;;;;;;;;20.80;99.90;;;;;;5028003;28;19933;-61
2023/07/02 10:56:06;;;;;;;;;;;20.70;99.90;;;;;;5023202;28;20309;-62
2023/07/02 10:58:41;;;;;;;;;;;20.50;99.90;;;;;;5025595;28;20309;-62
2023/07/02 11:01:13;;;;;;;;;;;20.60;99.90;;;;;;5025299;28;19983;-61
2023/07/02 11:03:45;;;;;;;;;;;20.70;99.90;;;;;;5024561;28;19929;-62
2023/07/02 11:06:17;;;;;;;;;;;20.90;99.90;;;;;;5019742;28;19929;-62
2023/07/02 11:08:49;;;;;;;;;;;20.90;99.90;;;;;;5024050;28;19925;-62
2023/07/02 11:11:25;;;;;;;;;;;20.90;99.90;;;;;;5027921;28;19929;-62
2023/07/02 11:13:57;;;;;;;;;;;21.00;99.90;;;;;;5026662;28;20436;-62
2023/07/02 11:16:29;;;;;;;;;;;21.30;99.90;;;;;;5017927;28;19936;-61
2023/07/02 11:19:10;;;;;;;;;;;21.50;99.90;;;;;;5022583;28;19929;-62
2023/07/02 11:21:50;;;;;;;;;;;21.50;99.90;;;;;;5021311;28;20019;-62
2023/07/02 11:24:35;;;;;;;;;;;21.50;99.90;;;;;;5026928;28;20412;-62
2023/07/02 11:27:07;;;;;;;;;;;21.50;99.90;;;;;;5022326;28;19995;-61
2023/07/02 11:29:39;;;;;;;;;;;21.40;99.90;;;;;;5025137;28;19929;-62
2023/07/02 11:32:11;;;;;;;;;;;21.40;99.90;;;;;;5026981;28;19979;-62
2023/07/02 11:34:52;;;;;;;;;;;21.30;99.90;;;;;;5026691;28;19933;-62
2023/07/02 11:37:25;;;;;;;;;;;21.20;99.90;;;;;;5021862;28;20397;-62
2023/07/02 11:39:56;;;;;;;;;;;21.40;99.90;;;;;;5029193;28;19925;-62
2023/07/02 11:42:29;;;;;;;;;;;21.70;99.90;;;;;;5029803;28;20397;-62
2023/07/02 11:45:01;;;;;;;;;;;22.10;99.90;;;;;;5025936;28;19925;-62
2023/07/02 11:47:33;;;;;;;;;;;22.40;99.90;;;;;;5029661;28;19932;-62
2023/07/02 11:50:05;;;;;;;;;;;22.70;99.90;;;;;;5028004;28;19932;-62
2023/07/02 11:52:37;;;;;;;;;;;22.50;99.90;;;;;;5026890;28;19929;-62
2023/07/02 11:55:08;;;;;;;;;;;22.50;99.90;;;;;;5027010;28;19929;-62
2023/07/02 11:57:40;;;;;;;;;;;22.70;99.90;;;;;;5027883;28;20020;-62
2023/07/02 12:00:07;;;;;;;;;;;22.90;99.90;;;;;;5026700;28;19929;-62
2023/07/02 12:02:33;;;;;;;;;;;23.10;99.90;;;;;;5028110;28;19925;-61
2023/07/02 12:05:05;;;;;;;;;;;23.30;99.90;;;;;;5025781;28;19936;-62
2023/07/02 12:07:33;;;;;;;;;;;23.40;99.90;;;;;;5027330;28;19986;-62
2023/07/02 12:10:06;;;;;;;;;;;23.40;99.90;;;;;;5028391;28;19929;-62
2023/07/02 12:12:33;;;;;;;;;;;23.70;99.90;;;;;;5029460;28;20475;-62
2023/07/02 12:15:05;;;;;;;;;;;23.70;99.90;;;;;;5010730;28;20006;-62
2023/07/02 12:17:32;;;;;;;;;;;23.40;99.90;;;;;;5022744;28;19926;-62
2023/07/02 12:20:04;;;;;;;;;;;23.50;99.90;;;;;;5027803;28;19957;-62
2023/07/02 12:22:31;;;;;;;;;;;23.50;99.90;;;;;;5027761;28;19935;-62
2023/07/02 12:25:03;;;;;;;;;;;23.40;99.90;;;;;;5010999;28;19995;-62
2023/07/02 12:27:34;;;;;;;;;;;23.50;99.90;;;;;;5026546;28;20024;-62
2023/07/02 12:30:08;;;;;;;;;;;23.70;99.90;;;;;;5024771;28;19931;-62
2023/07/02 12:32:40;;;;;;;;;;;23.80;99.90;;;;;;5026689;28;19982;-62
2023/07/02 12:35:11;;;;;;;;;;;23.70;99.90;;;;;;5040807;28;20594;-62
2023/07/02 12:37:49;;;;;;;;;;;23.70;99.90;;;;;;5023866;28;20012;-62
2023/07/02 12:40:16;;;;;;;;;;;24.00;99.90;;;;;;5024790;28;19929;-62
2023/07/02 12:42:48;;;;;;;;;;;23.90;99.90;;;;;;5027401;28;19952;-62
2023/07/02 12:45:19;;;;;;;;;;;23.70;99.90;;;;;;5023783;28;19929;-62
2023/07/02 12:47:51;;;;;;;;;;;23.60;99.90;;;;;;5026183;28;19925;-63
2023/07/02 12:50:18;;;;;;;;;;;23.30;99.90;;;;;;5026751;28;20348;-62
2023/07/02 12:52:50;;;;;;;;;;;23.10;99.90;;;;;;5008998;28;19929;-62
2023/07/02 12:55:21;;;;;;;;;;;22.80;99.90;;;;;;5021196;28;20511;-62
2023/07/02 12:57:53;;;;;;;;;;;22.80;99.90;;;;;;5026036;28;19929;-62
2023/07/02 13:00:25;;;;;;;;;;;22.80;99.90;;;;;;5026995;28;20282;-62
2023/07/02 13:02:58;;;;;;;;;;;22.60;99.90;;;;;;5024414;28;19932;-62
2023/07/02 13:05:25;;;;;;;;;;;22.70;99.90;;;;;;5025244;28;19937;-62
2023/07/02 13:07:57;;;;;;;;;;;22.70;99.90;;;;;;5025429;28;19971;-62
2023/07/02 13:10:24;;;;;;;;;;;22.90;99.90;;;;;;5025478;28;19933;-62
2023/07/02 13:12:51;;;;;;;;;;;22.90;99.90;;;;;;5024636;28;20016;-62
2023/07/02 13:15:18;;;;;;;;;;;23.20;99.90;;;;;;5020297;28;19933;-62
2023/07/02 13:17:45;;;;;;;;;;;23.40;99.90;;;;;;5011274;28;19929;-62
2023/07/02 13:20:18;;;;;;;;;;;23.30;99.90;;;;;;5017603;28;20320;-62
2023/07/02 13:22:44;;;;;;;;;;;23.10;99.90;;;;;;5029830;28;19972;-62
2023/07/02 13:25:16;;;;;;;;;;;22.80;99.90;;;;;;5027804;28;20488;-62
2023/07/02 13:27:48;;;;;;;;;;;22.50;99.90;;;;;;5025289;28;19975;-62
2023/07/02 13:30:20;;;;;;;;;;;22.30;99.90;;;;;;5033333;28;19940;-62
2023/07/02 13:32:52;;;;;;;;;;;22.50;99.90;;;;;;5027176;28;19933;-62
2023/07/02 13:35:24;;;;;;;;;;;22.90;99.90;;;;;;5027560;28;19929;-62
2023/07/02 13:37:50;;;;;;;;;;;23.20;99.90;;;;;;5024825;28;19995;-62
2023/07/02 13:40:23;;;;;;;;;;;23.50;99.90;;;;;;5013165;28;20316;-62
2023/07/02 13:42:55;;;;;;;;;;;23.50;99.90;;;;;;5030132;28;19929;-62
2023/07/02 13:45:28;;;;;;;;;;;23.70;99.90;;;;;;5029326;28;19937;-62
2023/07/02 13:48:00;;;;;;;;;;;23.80;99.90;;;;;;5028806;28;19929;-62
2023/07/02 13:50:31;;;;;;;;;;;23.70;99.90;;;;;;5029943;28;19979;-62
2023/07/02 13:53:03;;;;;;;;;;;23.50;99.90;;;;;;5026428;28;19930;-62
2023/07/02 13:55:35;;;;;;;;;;;23.50;99.90;;;;;;5027502;28;19933;-61
2023/07/02 13:58:06;;;;;;;;;;;23.40;99.90;;;;;;5027898;28;20361;-62
2023/07/02 14:00:38;;;;;;;;;;;23.30;99.90;;;;;;5027061;28;20323;-62
2023/07/02 14:03:05;;;;;;;;;;;23.40;99.90;;;;;;5025936;28;20394;-62
2023/07/02 14:05:37;;;;;;;;;;;23.30;99.90;;;;;;5029030;28;19925;-62
2023/07/02 14:08:04;;;;;;;;;;;23.30;99.90;;;;;;5010834;28;19971;-62
2023/07/02 14:10:32;;;;;;;;;;;23.20;99.90;;;;;;5028403;28;20038;-62
2023/07/02 14:12:59;;;;;;;;;;;23.20;99.90;;;;;;5014073;28;19937;-62
2023/07/02 14:15:31;;;;;;;;;;;23.30;99.90;;;;;;5013344;28;19929;-62
2023/07/02 14:18:03;;;;;;;;;;;23.40;99.90;;;;;;5025845;28;19929;-61
2023/07/02 14:20:35;;;;;;;;;;;23.30;99.90;;;;;;5027867;28;20410;-62
2023/07/02 14:23:07;;;;;;;;;;;23.30;99.90;;;;;;5031301;28;19929;-62
2023/07/02 14:25:39;;;;;;;;;;;23.30;99.90;;;;;;5029173;28;19924;-62
2023/07/02 14:28:05;;;;;;;;;;;23.60;99.90;;;;;;5025991;28;19929;-62
2023/07/02 14:30:37;;;;;;;;;;;23.80;99.90;;;;;;4996582;28;19925;-62
2023/07/02 14:33:09;;;;;;;;;;;23.80;99.90;;;;;;5027875;28;19931;-62
2023/07/02 14:35:36;;;;;;;;;;;24.00;99.90;;;;;;5028983;28;20049;-62
2023/07/02 14:38:08;;;;;;;;;;;23.90;99.90;;;;;;5026489;28;19964;-62
2023/07/02 14:40:39;;;;;;;;;;;23.80;99.90;;;;;;5028679;28;19931;-63